Time;durP1;ratioP1;P1;durP2;ratioP2;P2;SDS_P1;SDS_P2;PMS_P1;PMS_P2;Temp;Humidity;BMP_temperature;BMP_pressure;BME280_temperature;BME280_humidity;BME280_pressure;Samples;Min_cycle;Max_cycle;Signal;HPM_P1;HPM_P2
2022/01/21 00:01:04;;;;;;;;;;;;;;;8.93;55.13;103533.16;5097411;28;19912;-79
2022/01/21 00:03:30;;;;;;;;;;;;;;;8.48;57.33;103538.38;5098879;28;19920;-80
2022/01/21 00:05:55;;;;;;;;;;;;;;;9.47;55.22;103538.63;5098685;28;19939;-79
2022/01/21 00:08:21;;;;;;;;;;;;;;;10.01;52.36;103541.28;5097462;28;20012;-79
2022/01/21 00:10:46;;;;;;;;;;;;;;;10.09;51.75;103539.47;5097401;28;19958;-80
2022/01/21 00:13:20;;;;;;;;;;;;;;;9.94;52.18;103544.00;5098483;28;20354;-79
2022/01/21 00:15:45;;;;;;;;;;;;;;;9.32;53.73;103540.41;5096936;28;20365;-79
2022/01/21 00:18:12;;;;;;;;;;;;;;;9.66;52.72;103539.50;5096743;28;19926;-79
2022/01/21 00:31:49;;;;;;;;;;;;;;;10.03;51.26;103550.31;5097996;28;19920;-80
2022/01/21 00:34:14;;;;;;;;;;;;;;;9.94;51.60;103557.50;5097765;28;20373;-79
2022/01/21 00:36:39;;;;;;;;;;;;;;;9.87;51.29;103562.94;5097272;28;19912;-80
2022/01/21 00:39:05;;;;;;;;;;;;;;;10.00;51.05;103553.00;5097039;28;19916;-79
2022/01/21 00:41:34;;;;;;;;;;;;;;;10.07;50.80;103553.00;5098322;28;20011;-80
2022/01/21 00:43:59;;;;;;;;;;;;;;;9.74;52.13;103545.84;5098239;28;19952;-79
2022/01/21 00:46:25;;;;;;;;;;;;;;;9.67;52.54;103546.72;5096807;28;20289;-80
2022/01/21 00:48:50;;;;;;;;;;;;;;;9.31;53.34;103557.50;5096036;28;19912;-80
2022/01/21 00:51:15;;;;;;;;;;;;;;;8.79;55.19;103555.59;5097373;28;19931;-79
2022/01/21 00:53:41;;;;;;;;;;;;;;;8.50;56.83;103559.09;5096406;28;19969;-78
2022/01/21 00:56:06;;;;;;;;;;;;;;;8.79;56.15;103554.72;5095631;28;19920;-80
2022/01/21 00:58:31;;;;;;;;;;;;;;;9.57;53.80;103549.44;5096163;28;19916;-79
2022/01/21 01:00:56;;;;;;;;;;;;;;;9.39;53.89;103553.03;5095879;28;19923;-79
2022/01/21 01:03:22;;;;;;;;;;;;;;;9.36;54.32;103558.44;5095414;28;19920;-79
2022/01/21 01:05:48;;;;;;;;;;;;;;;9.80;52.54;103561.13;5097185;28;20285;-78
2022/01/21 01:08:13;;;;;;;;;;;;;;;9.44;53.07;103555.75;5095341;28;19923;-79
2022/01/21 01:10:47;;;;;;;;;;;;;;;9.53;53.46;103566.53;5097081;28;19917;-79
2022/01/21 01:21:24;;;;;;;;;;;;;;;9.44;54.04;103553.03;5097301;28;19932;-79
2022/01/21 01:29:00;;;;;;;;;;;;;;;8.85;55.04;103549.31;5097885;28;19923;-81
2022/01/21 01:31:25;;;;;;;;;;;;;;;8.83;55.19;103534.91;5093947;28;19917;-80
2022/01/21 01:33:50;;;;;;;;;;;;;;;8.66;56.01;103540.25;5095719;28;20019;-79
2022/01/21 01:36:15;;;;;;;;;;;;;;;8.72;56.10;103536.69;5096357;28;19916;-79
2022/01/21 01:39:04;;;;;;;;;;;;;;;8.64;56.62;103552.84;5094616;28;19920;-79
2022/01/21 01:41:32;;;;;;;;;;;;;;;8.83;56.36;103553.81;5095601;28;19916;-78
2022/01/21 01:51:53;;;;;;;;;;;;;;;8.41;58.70;103550.91;5095434;28;20289;-79
2022/01/21 01:54:19;;;;;;;;;;;;;;;8.70;58.40;103550.16;5094474;28;19916;-80
2022/01/21 01:56:47;;;;;;;;;;;;;;;8.84;57.52;103540.31;5094406;28;19916;-79
2022/01/21 01:59:13;;;;;;;;;;;;;;;8.82;57.03;103539.41;5095082;28;19958;-81
2022/01/21 02:01:38;;;;;;;;;;;;;;;9.21;55.98;103543.09;5095041;28;19924;-78
2022/01/21 02:04:04;;;;;;;;;;;;;;;9.40;55.70;103549.44;5099436;28;20310;-80
2022/01/21 02:06:29;;;;;;;;;;;;;;;9.14;56.04;103546.69;5098225;28;20389;-79
2022/01/21 02:08:55;;;;;;;;;;;;;;;9.02;57.01;103546.66;5100934;28;19951;-80
2022/01/21 02:11:20;;;;;;;;;;;;;;;9.10;56.73;103546.69;5099335;28;20423;-78
2022/01/21 02:13:49;;;;;;;;;;;;;;;8.89;57.06;103544.81;5100715;28;20278;-78
2022/01/21 02:16:33;;;;;;;;;;;;;;;9.18;56.15;103561.13;5099416;28;20266;-78
2022/01/21 02:21:45;;;;;;;;;;;;;;;9.27;55.57;103549.41;5101196;28;19985;-79
2022/01/21 02:24:19;;;;;;;;;;;;;;;8.94;55.92;103553.84;5099109;28;19954;-78
2022/01/21 02:26:45;;;;;;;;;;;;;;;9.55;54.34;103556.63;5097370;28;19916;-79
2022/01/21 02:29:11;;;;;;;;;;;;;;;9.77;53.38;103553.94;5096604;28;19923;-79
2022/01/21 02:31:37;;;;;;;;;;;;;;;9.67;53.39;103557.53;5097780;28;19923;-80
2022/01/21 02:34:04;;;;;;;;;;;;;;;9.25;54.16;103556.63;5098146;28;19916;-79
2022/01/21 02:36:29;;;;;;;;;;;;;;;8.98;55.51;103544.84;5097772;28;20288;-80
2022/01/21 02:38:55;;;;;;;;;;;;;;;8.58;56.14;103539.34;5098810;28;20007;-79
2022/01/21 02:41:20;;;;;;;;;;;;;;;9.46;53.91;103535.00;5098985;28;19924;-79
2022/01/21 02:43:45;;;;;;;;;;;;;;;9.87;52.75;103541.28;5097229;28;20387;-79
2022/01/21 02:46:11;;;;;;;;;;;;;;;9.80;52.85;103544.91;5097310;28;19916;-79
2022/01/21 02:48:38;;;;;;;;;;;;;;;9.21;54.01;103547.63;5097413;28;19920;-80
2022/01/21 02:51:08;;;;;;;;;;;;;;;8.41;56.37;103545.53;5097124;28;20416;-79
2022/01/21 02:54:07;;;;;;;;;;;;;;;7.95;58.04;103547.94;5096826;28;20023;-78
2022/01/21 02:56:25;;;;;;;;;;;;;;;8.05;57.87;103540.81;5097423;28;19923;-78
2022/01/21 02:58:51;;;;;;;;;;;;;;;7.93;59.45;103552.44;5097686;28;19916;-79
2022/01/21 03:01:17;;;;;;;;;;;;;;;8.76;56.91;103538.50;5098188;28;20350;-78
2022/01/21 03:03:44;;;;;;;;;;;;;;;9.37;54.35;103543.13;5097781;28;19961;-79
2022/01/21 03:06:09;;;;;;;;;;;;;;;9.23;54.67;103541.28;5097782;28;20005;-78
2022/01/21 03:08:34;;;;;;;;;;;;;;;8.95;55.50;103531.34;5097158;28;19917;-78
2022/01/21 03:10:59;;;;;;;;;;;;;;;9.31;54.84;103549.41;5097229;28;19916;-78
2022/01/21 03:13:25;;;;;;;;;;;;;;;9.08;55.28;103535.88;5098003;28;19974;-79
2022/01/21 03:15:50;;;;;;;;;;;;;;;9.01;55.92;103536.75;5098386;28;19916;-79
2022/01/21 03:18:16;;;;;;;;;;;;;;;8.26;58.45;103537.34;5097515;28;20027;-79
2022/01/21 03:20:41;;;;;;;;;;;;;;;8.34;58.70;103536.47;5097269;28;19956;-79
2022/01/21 03:23:08;;;;;;;;;;;;;;;8.70;57.58;103542.06;5096548;28;20365;-78
2022/01/21 03:25:34;;;;;;;;;;;;;;;8.44;58.00;103548.25;5095587;28;19916;-78
2022/01/21 03:27:59;;;;;;;;;;;;;;;8.62;58.08;103549.22;5096829;28;20312;-78
2022/01/21 03:30:24;;;;;;;;;;;;;;;8.91;56.71;103537.63;5097683;28;19951;-80
2022/01/21 03:32:49;;;;;;;;;;;;;;;8.98;56.54;103539.44;5099493;28;19916;-79
2022/01/21 03:35:15;;;;;;;;;;;;;;;8.37;58.14;103540.09;5099227;28;19916;-78
2022/01/21 03:37:40;;;;;;;;;;;;;;;8.49;58.48;103538.38;5098641;28;19923;-79
2022/01/21 03:40:05;;;;;;;;;;;;;;;8.40;58.44;103546.41;5100062;28;19923;-79
2022/01/21 03:42:30;;;;;;;;;;;;;;;8.34;58.68;103535.59;5097768;28;19930;-80
2022/01/21 03:44:56;;;;;;;;;;;;;;;8.50;58.05;103547.41;5098058;28;20266;-78
2022/01/21 03:47:21;;;;;;;;;;;;;;;9.46;55.42;103551.22;5097480;28;20342;-79
2022/01/21 03:49:54;;;;;;;;;;;;;;;9.87;53.76;103553.03;5097374;28;19935;-76
2022/01/21 03:52:19;;;;;;;;;;;;;;;9.57;54.30;103556.63;5097370;28;19927;-79
2022/01/21 03:54:44;;;;;;;;;;;;;;;9.43;54.29;103558.44;5096055;28;19916;-80
2022/01/21 03:57:10;;;;;;;;;;;;;;;9.36;54.68;103563.84;5095740;28;20343;-80
2022/01/21 03:59:35;;;;;;;;;;;;;;;8.81;55.49;103556.50;5096541;28;19916;-80
2022/01/21 04:02:01;;;;;;;;;;;;;;;9.36;54.95;103565.63;5097755;28;19923;-79
2022/01/21 04:04:26;;;;;;;;;;;;;;;9.26;55.08;103562.00;5098065;28;19916;-78
2022/01/21 04:06:51;;;;;;;;;;;;;;;9.36;54.62;103562.91;5096749;28;20003;-78
2022/01/21 04:09:16;;;;;;;;;;;;;;;9.39;54.58;103562.91;5096282;28;19980;-78
2022/01/21 04:11:41;;;;;;;;;;;;;;;9.27;54.48;103563.81;5097008;28;19923;-78
2022/01/21 04:14:07;;;;;;;;;;;;;;;9.08;56.39;103562.00;5096083;28;19920;-79
2022/01/21 04:16:32;;;;;;;;;;;;;;;9.29;55.42;103562.03;5097070;28;19923;-78
2022/01/21 04:18:57;;;;;;;;;;;;;;;8.95;56.84;103571.84;5098512;28;19923;-78
2022/01/21 04:21:22;;;;;;;;;;;;;;;9.74;54.63;103565.66;5096663;28;19920;-78
2022/01/21 04:23:48;;;;;;;;;;;;;;;9.72;53.73;103562.06;5096859;28;19916;-79
2022/01/21 04:26:13;;;;;;;;;;;;;;;9.21;55.82;103559.31;5098683;28;19944;-79
2022/01/21 04:28:38;;;;;;;;;;;;;;;8.84;56.94;103567.31;5098865;28;20003;-79
2022/01/21 04:31:03;;;;;;;;;;;;;;;8.89;57.29;103561.03;5096661;28;19916;-78
2022/01/21 04:33:29;;;;;;;;;;;;;;;9.26;55.84;103561.13;5096855;28;20354;-78
2022/01/21 04:35:54;;;;;;;;;;;;;;;9.58;54.25;103566.53;5096251;28;19969;-80
2022/01/21 04:38:22;;;;;;;;;;;;;;;9.56;54.41;103560.25;5096296;28;20019;-80
2022/01/21 04:41:04;;;;;;;;;;;;;;;9.57;53.98;103565.66;5097394;28;19928;-79
2022/01/21 04:48:57;;;;;;;;;;;;;;;9.84;52.80;103569.22;5097489;28;19968;-79
2022/01/21 04:51:28;;;;;;;;;;;;;;;9.61;53.46;103562.97;5096691;28;20374;-79
2022/01/21 04:53:55;;;;;;;;;;;;;;;9.58;53.14;103563.84;5096120;28;21421;-79
2022/01/21 04:56:21;;;;;;;;;;;;;;;9.16;54.34;103571.91;5096633;28;19965;-80
2022/01/21 04:58:47;;;;;;;;;;;;;;;9.36;54.25;103566.53;5097518;28;20011;-78
2022/01/21 05:01:12;;;;;;;;;;;;;;;9.04;54.75;103571.84;5095611;28;19969;-80
2022/01/21 05:03:39;;;;;;;;;;;;;;;8.79;55.67;103566.41;5096951;28;19916;-80
2022/01/21 05:06:04;;;;;;;;;;;;;;;8.86;55.19;103562.84;5098007;28;20366;-81
2022/01/21 05:08:53;;;;;;;;;;;;;;;9.11;54.94;103562.00;5095472;28;19951;-79
2022/01/21 05:11:19;;;;;;;;;;;;;;;8.96;55.00;103552.06;5096230;28;19920;-79
2022/01/21 05:13:55;;;;;;;;;;;;;;;8.67;55.58;103552.84;5095031;28;19970;-81
2022/01/21 05:18:45;;;;;;;;;;;;;;;8.80;55.91;103554.72;5096711;28;19962;-81
2022/01/21 05:21:11;;;;;;;;;;;;;;;9.01;54.54;103552.94;5095569;28;20013;-79
2022/01/21 05:23:36;;;;;;;;;;;;;;;9.30;53.96;103557.50;5094516;28;20300;-79
2022/01/21 05:26:01;;;;;;;;;;;;;;;9.47;52.75;103561.13;5095476;28;19970;-79
2022/01/21 05:28:26;;;;;;;;;;;;;;;9.48;52.54;103556.63;5095786;28;19920;-79
2022/01/21 05:30:52;;;;;;;;;;;;;;;9.45;52.65;103562.97;5096177;28;19916;-79
2022/01/21 05:33:17;;;;;;;;;;;;;;;9.44;53.35;103555.75;5097600;28;19920;-78
2022/01/21 05:35:42;;;;;;;;;;;;;;;9.60;53.02;103561.13;5097352;28;19996;-78
2022/01/21 05:38:07;;;;;;;;;;;;;;;9.81;53.04;103555.72;5099244;28;20354;-79
2022/01/21 05:40:33;;;;;;;;;;;;;;;9.88;52.63;103552.13;5100478;28;19912;-80
2022/01/21 05:42:58;;;;;;;;;;;;;;;9.39;53.51;103554.81;5099378;28;19925;-79
2022/01/21 05:48:07;;;;;;;;;;;;;;;9.10;54.91;103544.88;5099737;28;19927;-80
2022/01/21 05:50:32;;;;;;;;;;;;;;;8.33;59.11;103549.94;5097971;28;19920;-79
2022/01/21 05:53:01;;;;;;;;;;;;;;;8.01;60.54;103545.28;5098594;28;19930;-79
2022/01/21 05:55:27;;;;;;;;;;;;;;;8.29;60.48;103556.25;5099944;28;19927;-80
2022/01/21 05:57:52;;;;;;;;;;;;;;;8.33;59.62;103549.94;5098656;28;19916;-79
2022/01/21 06:00:17;;;;;;;;;;;;;;;8.64;59.83;103561.84;5098943;28;20373;-80
2022/01/21 06:02:42;;;;;;;;;;;;;;;10.05;55.44;103554.78;5098527;28;19916;-80
2022/01/21 06:05:08;;;;;;;;;;;;;;;9.96;55.58;103565.63;5098627;28;19920;-79
2022/01/21 06:07:34;;;;;;;;;;;;;;;10.11;54.30;103559.28;5099830;28;20003;-80
2022/01/21 06:09:59;;;;;;;;;;;;;;;10.44;53.78;103563.75;5098842;28;19997;-79
2022/01/21 06:12:24;;;;;;;;;;;;;;;10.72;52.61;103573.56;5099335;28;19972;-79
2022/01/21 06:14:50;;;;;;;;;;;;;;;10.86;52.44;103577.13;5099066;28;20294;-77
2022/01/21 06:17:15;;;;;;;;;;;;;;;10.60;53.24;103578.13;5098939;28;20251;-79
2022/01/21 06:19:40;;;;;;;;;;;;;;;9.91;54.76;103567.44;5100718;28;19923;-78
2022/01/21 06:22:09;;;;;;;;;;;;;;;10.51;53.89;103574.53;5099025;28;19978;-80
2022/01/21 06:24:34;;;;;;;;;;;;;;;10.81;53.32;103578.97;5099133;28;19977;-80
2022/01/21 06:27:02;;;;;;;;;;;;;;;10.66;53.48;103579.91;5098492;28;19920;-80
2022/01/21 06:29:28;;;;;;;;;;;;;;;9.74;55.36;103575.56;5099785;28;19954;-82
2022/01/21 06:31:53;;;;;;;;;;;;;;;9.98;56.21;103576.44;5099347;28;19916;-79
2022/01/21 06:34:18;;;;;;;;;;;;;;;9.68;57.45;103583.69;5096855;28;20247;-79
2022/01/21 06:36:43;;;;;;;;;;;;;;;10.26;55.37;103588.13;5100039;28;19916;-81
2022/01/21 06:39:09;;;;;;;;;;;;;;;10.18;55.71;103590.84;5098910;28;20259;-82
2022/01/21 06:41:34;;;;;;;;;;;;;;;9.69;56.97;103582.75;5096891;28;19916;-80
2022/01/21 06:43:59;;;;;;;;;;;;;;;10.04;55.91;103596.28;5097103;28;19916;-79
2022/01/21 06:46:25;;;;;;;;;;;;;;;10.46;54.95;103598.91;5097996;28;19916;-80
2022/01/21 06:48:50;;;;;;;;;;;;;;;10.74;54.17;103593.44;5095302;28;19916;-79
2022/01/21 06:51:15;;;;;;;;;;;;;;;10.92;53.59;103593.34;5098194;28;19999;-81
2022/01/21 06:53:40;;;;;;;;;;;;;;;11.25;52.30;103594.06;5098860;28;19929;-83
2022/01/21 06:56:05;;;;;;;;;;;;;;;11.18;51.89;103593.19;5099894;28;19963;-82
2022/01/21 06:58:31;;;;;;;;;;;;;;;11.09;51.69;103582.41;5096987;28;19916;-80
2022/01/21 07:00:56;;;;;;;;;;;;;;;10.99;51.44;103589.69;5096948;28;19911;-82
2022/01/21 07:03:21;;;;;;;;;;;;;;;10.73;52.28;103589.78;5096994;28;19916;-81
2022/01/21 07:05:46;;;;;;;;;;;;;;;10.59;52.35;103597.09;5097389;28;19924;-82
2022/01/21 07:08:14;;;;;;;;;;;;;;;10.51;52.13;103580.88;5096483;28;19923;-80
2022/01/21 07:10:39;;;;;;;;;;;;;;;10.53;52.12;103583.56;5099052;28;19943;-82
2022/01/21 07:13:04;;;;;;;;;;;;;;;10.44;52.58;103589.91;5098724;28;19916;-81
2022/01/21 07:15:30;;;;;;;;;;;;;;;10.34;52.38;103582.72;5096669;28;19931;-81
2022/01/21 07:17:55;;;;;;;;;;;;;;;10.17;52.83;103578.22;5096465;28;19939;-80
2022/01/21 07:20:20;;;;;;;;;;;;;;;10.09;53.23;103590.84;5094503;28;19927;-80
2022/01/21 07:22:46;;;;;;;;;;;;;;;10.22;52.85;103597.13;5095254;28;19943;-81
2022/01/21 07:25:13;;;;;;;;;;;;;;;10.05;53.31;103605.28;5095038;28;19923;-81
2022/01/21 07:27:38;;;;;;;;;;;;;;;10.01;52.96;103606.19;5097048;28;19967;-81
2022/01/21 07:30:04;;;;;;;;;;;;;;;10.13;52.50;103603.50;5097645;28;19946;-83
2022/01/21 07:32:29;;;;;;;;;;;;;;;9.89;53.05;103608.00;5095454;28;19916;-79
2022/01/21 07:34:54;;;;;;;;;;;;;;;9.89;52.77;103605.31;5094439;28;19916;-79
2022/01/21 07:37:20;;;;;;;;;;;;;;;9.89;52.57;103609.81;5092773;28;19923;-78
2022/01/21 07:39:45;;;;;;;;;;;;;;;9.78;53.09;103614.31;5094967;28;20499;-80
2022/01/21 07:42:10;;;;;;;;;;;;;;;9.83;52.85;103608.00;5093732;28;19916;-79
2022/01/21 07:44:36;;;;;;;;;;;;;;;9.82;52.87;103600.78;5093900;28;19920;-77
2022/01/21 07:47:01;;;;;;;;;;;;;;;9.83;53.07;103605.31;5094559;28;20015;-80
2022/01/21 07:49:26;;;;;;;;;;;;;;;9.81;53.55;103609.78;5095449;28;19916;-81
2022/01/21 07:51:52;;;;;;;;;;;;;;;9.91;53.41;103608.00;5094940;28;20022;-79
2022/01/21 07:54:17;;;;;;;;;;;;;;;10.05;53.20;103602.59;5095678;28;19920;-81
2022/01/21 07:56:42;;;;;;;;;;;;;;;10.22;53.08;103606.19;5097005;28;19917;-81
2022/01/21 07:59:10;;;;;;;;;;;;;;;10.13;53.42;103610.69;5095418;28;20041;-80
2022/01/21 08:01:35;;;;;;;;;;;;;;;10.35;52.78;103601.66;5093674;28;19959;-79
2022/01/21 08:04:01;;;;;;;;;;;;;;;10.48;52.67;103617.84;5095597;28;19916;-81
2022/01/21 08:06:26;;;;;;;;;;;;;;;10.62;52.37;103608.78;5095107;28;19916;-80
2022/01/21 08:08:54;;;;;;;;;;;;;;;10.58;53.03;103615.16;5094887;28;19923;-80
2022/01/21 08:11:19;;;;;;;;;;;;;;;10.11;54.63;103603.50;5095061;28;20331;-82
2022/01/21 08:13:44;;;;;;;;;;;;;;;9.20;57.81;103616.91;5095721;28;19916;-81
2022/01/21 08:16:09;;;;;;;;;;;;;;;8.68;60.66;103622.13;5095383;28;19916;-80
2022/01/21 08:18:36;;;;;;;;;;;;;;;8.95;60.95;103621.38;5094674;28;19916;-80
2022/01/21 08:21:01;;;;;;;;;;;;;;;9.48;58.49;103621.47;5095794;28;19920;-81
2022/01/21 08:23:26;;;;;;;;;;;;;;;9.22;58.86;103625.94;5094722;28;20014;-79
2022/01/21 08:25:52;;;;;;;;;;;;;;;9.29;58.84;103623.25;5085650;28;20024;-79
2022/01/21 08:28:17;;;;;;;;;;;;;;;9.60;58.69;103615.19;5080075;28;20011;-81
2022/01/21 08:30:42;;;;;;;;;;;;;;;10.11;57.07;103617.00;5075173;28;19923;-80
2022/01/21 08:33:07;;;;;;;;;;;;;;;10.02;57.35;103611.59;5075476;28;19920;-81
2022/01/21 08:35:33;;;;;;;;;;;;;;;10.62;55.26;103605.19;5082933;28;19916;-81
2022/01/21 08:37:58;;;;;;;;;;;;;;;10.66;55.06;103612.41;5096163;28;19916;-81
2022/01/21 08:40:24;;;;;;;;;;;;;;;10.82;54.64;103618.66;5094059;28;19961;-79
2022/01/21 08:42:49;;;;;;;;;;;;;;;11.17;54.12;103618.50;5095356;28;20050;-80
2022/01/21 08:45:15;;;;;;;;;;;;;;;11.57;53.12;103617.34;5095424;28;19923;-80
2022/01/21 08:47:41;;;;;;;;;;;;;;;11.96;52.06;103608.94;5096105;28;19912;-82
2022/01/21 08:50:09;;;;;;;;;;;;;;;12.03;51.37;103602.50;5095652;28;19920;-82
2022/01/21 08:52:37;;;;;;;;;;;;;;;11.78;52.83;103602.72;5096100;28;19988;-82
2022/01/21 08:55:04;;;;;;;;;;;;;;;11.47;54.26;103607.47;5095054;28;19916;-80
2022/01/21 08:57:29;;;;;;;;;;;;;;;11.59;53.51;103601.06;5094921;28;19923;-81
2022/01/21 08:59:54;;;;;;;;;;;;;;;10.99;55.21;103605.03;5094899;28;19916;-81
2022/01/21 09:02:20;;;;;;;;;;;;;;;11.65;54.32;103596.47;5093959;28;19916;-81
2022/01/21 09:04:46;;;;;;;;;;;;;;;11.38;54.14;103592.16;5094688;28;20316;-81
2022/01/21 09:07:11;;;;;;;;;;;;;;;11.89;53.26;103598.06;5093918;28;20646;-82
2022/01/21 09:09:36;;;;;;;;;;;;;;;11.65;53.27;103596.47;5094144;28;20003;-81
2022/01/21 09:12:01;;;;;;;;;;;;;;;11.97;52.79;103591.72;5093233;28;19944;-83
2022/01/21 09:14:28;;;;;;;;;;;;;;;11.77;53.57;103597.28;5092876;28;20053;-79
2022/01/21 09:16:53;;;;;;;;;;;;;;;11.76;53.83;103600.91;5093272;28;20617;-81
2022/01/21 09:19:18;;;;;;;;;;;;;;;11.24;55.11;103600.38;5094679;28;19916;-79
2022/01/21 09:21:45;;;;;;;;;;;;;;;11.84;53.65;103597.22;5095936;28;20386;-79
2022/01/21 09:24:11;;;;;;;;;;;;;;;11.43;54.75;103600.25;5094694;28;19923;-79
2022/01/21 09:26:36;;;;;;;;;;;;;;;11.57;54.88;103592.94;5093988;28;20293;-79
2022/01/21 09:29:03;;;;;;;;;;;;;;;11.47;54.96;103593.91;5094664;28;19916;-79
2022/01/21 09:31:29;;;;;;;;;;;;;;;11.22;56.24;103596.78;5094598;28;20006;-82
2022/01/21 09:33:55;;;;;;;;;;;;;;;11.11;56.56;103594.16;5094241;28;19922;-81
2022/01/21 09:36:20;;;;;;;;;;;;;;;10.97;56.72;103610.44;5093303;28;20284;-81
2022/01/21 09:38:46;;;;;;;;;;;;;;;10.22;59.21;103614.28;5094763;28;19916;-80
2022/01/21 09:41:11;;;;;;;;;;;;;;;10.94;58.60;103602.34;5094623;28;19916;-80
2022/01/21 09:43:38;;;;;;;;;;;;;;;10.76;59.31;103607.84;5095044;28;19938;-80
2022/01/21 09:46:07;;;;;;;;;;;;;;;10.48;60.97;103607.94;5094859;28;19916;-80
2022/01/21 09:48:37;;;;;;;;;;;;;;;10.90;58.72;103614.13;5096204;28;19928;-81
2022/01/21 09:51:02;;;;;;;;;;;;;;;10.21;61.94;103612.47;5094482;28;19942;-80
2022/01/21 09:53:31;;;;;;;;;;;;;;;9.98;63.24;103608.88;5095071;28;19994;-81
2022/01/21 09:56:02;;;;;;;;;;;;;;;10.57;61.86;103618.75;5094479;28;19920;-80
2022/01/21 09:58:28;;;;;;;;;;;;;;;10.68;61.29;103613.28;5094345;28;19924;-80
2022/01/21 10:00:55;;;;;;;;;;;;;;;11.05;60.50;103612.22;5096075;28;20393;-80
2022/01/21 10:03:22;;;;;;;;;;;;;;;10.55;62.21;103620.56;5094594;28;19916;-81
2022/01/21 10:05:47;;;;;;;;;;;;;;;10.68;62.95;103618.72;5094858;28;19920;-79
2022/01/21 10:08:13;;;;;;;;;;;;;;;10.98;62.08;103622.22;5095413;28;19939;-80
2022/01/21 10:10:43;;;;;;;;;;;;;;;11.29;59.61;103628.38;5093431;28;19923;-82
2022/01/21 10:13:09;;;;;;;;;;;;;;;11.09;60.71;103628.47;5095590;28;19951;-80
2022/01/21 10:15:36;;;;;;;;;;;;;;;10.83;61.99;103631.28;5094704;28;19962;-80
2022/01/21 10:18:06;;;;;;;;;;;;;;;10.97;61.35;103629.41;5094904;28;19919;-80
2022/01/21 10:20:31;;;;;;;;;;;;;;;11.45;60.80;103629.16;5095137;28;19970;-80
2022/01/21 10:23:03;;;;;;;;;;;;;;;11.47;59.93;103632.78;5097857;28;19939;-80
2022/01/21 10:25:29;;;;;;;;;;;;;;;11.60;60.30;103635.41;5099472;28;19927;-80
2022/01/21 10:28:08;;;;;;;;;;;;;;;11.38;60.34;103635.53;5099577;28;19916;-79
2022/01/21 10:30:33;;;;;;;;;;;;;;;11.10;61.31;103638.41;5100116;28;19920;-79
2022/01/21 10:32:58;;;;;;;;;;;;;;;10.97;61.09;103634.81;5097296;28;19923;-79
2022/01/21 10:35:26;;;;;;;;;;;;;;;11.66;59.45;103635.34;5099023;28;20416;-80
2022/01/21 10:37:52;;;;;;;;;;;;;;;11.52;59.20;103620.09;5096348;28;19923;-78
2022/01/21 10:40:21;;;;;;;;;;;;;;;10.75;60.85;103619.56;5094907;28;19920;-79
2022/01/21 10:42:46;;;;;;;;;;;;;;;11.61;59.39;103621.84;5097810;28;20587;-80
2022/01/21 10:45:12;;;;;;;;;;;;;;;11.72;57.88;103619.03;5095999;28;19903;-80
2022/01/21 10:47:48;;;;;;;;;;;;;;;11.06;60.04;103628.47;5098215;28;20039;-80
2022/01/21 10:50:14;;;;;;;;;;;;;;;11.97;57.43;103630.63;5096064;28;19966;-80
2022/01/21 10:52:43;;;;;;;;;;;;;;;12.12;56.70;103625.94;5096143;28;19964;-80
2022/01/21 10:55:27;;;;;;;;;;;;;;;11.09;59.52;103623.03;5095764;28;19930;-80
2022/01/21 10:58:09;;;;;;;;;;;;;;;11.29;59.34;103622.94;5094919;28;19928;-80
2022/01/21 11:00:35;;;;;;;;;;;;;;;11.05;60.65;103612.22;5093621;28;19917;-80
2022/01/21 11:03:08;;;;;;;;;;;;;;;11.66;59.46;103619.97;5095727;28;19970;-80
2022/01/21 11:05:38;;;;;;;;;;;;;;;11.61;58.68;103619.13;5095369;28;19923;-81
2022/01/21 11:08:09;;;;;;;;;;;;;;;12.12;57.32;103607.84;5098094;28;20385;-81
2022/01/21 11:10:38;;;;;;;;;;;;;;;12.17;56.64;103608.72;5097456;28;19917;-81
2022/01/21 11:13:20;;;;;;;;;;;;;;;11.81;56.07;103613.53;5096941;28;19916;-80
2022/01/21 11:15:47;;;;;;;;;;;;;;;11.96;55.93;103611.66;5096353;28;19973;-80
2022/01/21 11:18:15;;;;;;;;;;;;;;;12.87;53.70;103614.25;5096279;28;20382;-81
2022/01/21 11:20:42;;;;;;;;;;;;;;;12.60;53.30;103607.34;5097443;28;19988;-81
2022/01/21 11:23:08;;;;;;;;;;;;;;;12.92;52.05;103606.03;5096823;28;20385;-81
2022/01/21 11:25:40;;;;;;;;;;;;;;;13.14;52.33;103611.19;5098378;28;20014;-81
2022/01/21 11:28:06;;;;;;;;;;;;;;;12.21;53.98;103615.94;5098138;28;19916;-81
2022/01/21 11:30:31;;;;;;;;;;;;;;;12.29;54.55;103618.56;5095831;28;19920;-81
2022/01/21 11:32:57;;;;;;;;;;;;;;;12.67;53.67;103611.78;5096982;28;20417;-82
2022/01/21 11:35:22;;;;;;;;;;;;;;;13.27;52.01;103604.63;5096992;28;19916;-81
2022/01/21 11:37:47;;;;;;;;;;;;;;;13.06;52.85;103609.47;5097705;28;19920;-84
2022/01/21 11:40:13;;;;;;;;;;;;;;;12.54;54.23;103610.13;5096108;28;19916;-82
2022/01/21 11:42:38;;;;;;;;;;;;;;;11.99;55.47;103620.66;5093825;28;19916;-79
2022/01/21 11:45:14;;;;;;;;;;;;;;;11.66;57.29;103621.78;5083132;28;19921;-79
2022/01/21 11:48:11;;;;;;;;;;;;;;;11.50;57.96;103618.28;5084383;28;19912;-80
2022/01/21 11:50:35;;;;;;;;;;;;;;;11.34;58.22;103607.53;5094173;28;19927;-81
2022/01/21 11:53:00;;;;;;;;;;;;;;;11.39;57.67;103593.97;5097303;28;19947;-83
2022/01/21 11:55:29;;;;;;;;;;;;;;;11.26;59.15;103592.25;5094051;28;19927;-83
2022/01/21 11:58:09;;;;;;;;;;;;;;;11.38;58.82;103596.69;5092797;28;19924;-80
2022/01/21 12:00:35;;;;;;;;;;;;;;;11.29;58.88;103585.00;5092846;28;19974;-80
2022/01/21 12:03:00;;;;;;;;;;;;;;;11.24;58.92;103585.94;5094429;28;19920;-81
2022/01/21 12:05:26;;;;;;;;;;;;;;;11.70;58.67;103589.22;5093196;28;20336;-81
2022/01/21 12:07:51;;;;;;;;;;;;;;;11.21;60.08;103591.38;5094058;28;19924;-80
2022/01/21 12:10:18;;;;;;;;;;;;;;;11.13;60.34;103594.13;5093696;28;19922;-79
2022/01/21 12:12:59;;;;;;;;;;;;;;;11.52;59.91;103592.06;5094072;28;19923;-81
2022/01/21 12:15:29;;;;;;;;;;;;;;;11.30;58.82;103580.47;5094769;28;19916;-84
2022/01/21 12:20:58;;;;;;;;;;;;;;;11.87;57.89;103567.34;5074701;28;19924;-82
2022/01/21 12:23:25;;;;;;;;;;;;;;;11.93;57.29;103576.41;5112901;28;19982;-82
2022/01/21 12:26:08;;;;;;;;;;;;;;;11.98;57.94;103574.53;5114526;28;19981;-84
2022/01/21 12:28:34;;;;;;;;;;;;;;;12.01;57.80;103572.69;5116883;28;20327;-82
2022/01/21 12:31:00;;;;;;;;;;;;;;;12.55;56.16;103569.38;5115235;28;20015;-83
2022/01/21 12:33:49;;;;;;;;;;;;;;;12.30;56.26;103570.59;5115802;28;19919;-81
2022/01/21 12:36:15;;;;;;;;;;;;;;;12.40;55.76;103566.84;5114852;28;19916;-82
2022/01/21 12:41:15;;;;;;;;;;;;;;;11.63;57.23;103565.75;5116393;28;19923;-81
2022/01/21 12:43:40;;;;;;;;;;;;;;;12.30;56.07;103557.91;5113808;28;19916;-81
2022/01/21 12:46:07;;;;;;;;;;;;;;;12.80;54.99;103560.91;5116113;28;19969;-82
2022/01/21 12:48:36;;;;;;;;;;;;;;;12.81;54.57;103559.09;5115357;28;19920;-81
2022/01/21 12:51:14;;;;;;;;;;;;;;;12.75;54.27;103549.22;5114548;28;19920;-80
2022/01/21 12:55:55;;;;;;;;;;;;;;;12.59;55.27;103549.41;5117212;28;19927;-81
2022/01/21 12:56:25;;;;;;;;;;;;;;;12.25;54.79;103542.59;5117428;28;19927;-82
2022/01/21 12:58:50;;;;;;;;;;;;;;;12.08;55.85;103546.41;5117431;28;20262;-81
2022/01/21 13:01:16;;;;;;;;;;;;;;;11.75;58.35;103550.31;5115717;28;19916;-81
2022/01/21 13:03:47;;;;;;;;;;;;;;;11.35;58.67;103552.44;5116114;28;19904;-82
2022/01/21 13:06:21;;;;;;;;;;;;;;;11.22;58.33;103550.72;5116614;28;20017;-81
2022/01/21 13:08:59;;;;;;;;;;;;;;;11.75;56.54;103550.31;5115514;28;20353;-81
2022/01/21 13:11:25;;;;;;;;;;;;;;;11.80;55.77;103543.03;5115863;28;20018;-81
2022/01/21 13:14:33;;;;;;;;;;;;;;;11.20;57.93;103555.22;5114961;28;20009;-81
2022/01/21 13:17:02;;;;;;;;;;;;;;;11.34;58.30;103552.44;5115982;28;19997;-81
2022/01/21 13:19:27;;;;;;;;;;;;;;;11.63;57.49;103535.94;5116161;28;19923;-81
2022/01/21 13:21:53;;;;;;;;;;;;;;;11.51;59.08;103539.66;5097426;28;20376;-82
2022/01/21 13:24:38;;;;;;;;;;;;;;;11.45;59.84;103544.22;5114422;28;19916;-82
2022/01/21 13:27:03;;;;;;;;;;;;;;;11.42;60.99;103536.13;5115715;28;20392;-81
2022/01/21 13:29:33;;;;;;;;;;;;;;;11.48;61.21;103546.91;5114476;28;19915;-81
2022/01/21 13:32:00;;;;;;;;;;;;;;;11.57;60.82;103543.25;5115393;28;20011;-81